OYGEA EGLF-EGJJ
Flight info
| Callsign | OYGEA |
|---|---|
| Flight time | 0h 45m |
| Altitude | 20000 |
| Route | HAZEL L620 SAM N63 LELNA |
| Aircraft | STAR/L-SDFGRWY/S |
Departure
| Time | 2026-04-24 19:24 |
|---|---|
| Airport | Farnborough Airport (EGLF) |
Arrival
| Time | 2026-04-24 20:10 |
|---|---|
| Airport | Jersey Airport (EGJJ) |
| Time | Latitude | Longitude | Altitude | Speed | Heading |
|---|---|---|---|---|---|
| 2026-04-24 18:59 | 51.27772 | -0.78164 | 227 ft | 0 kts | 124° |
| 2026-04-24 19:17 | 51.27758 | -0.78131 | 227 ft | 9 kts | 129° |
| 2026-04-24 19:18 | 51.27718 | -0.78142 | 227 ft | 6 kts | 216° |
| 2026-04-24 19:18 | 51.27680 | -0.78184 | 227 ft | 5 kts | 217° |
| 2026-04-24 19:18 | 51.27659 | -0.78218 | 227 ft | 4 kts | 242° |
| 2026-04-24 19:18 | 51.27644 | -0.78263 | 227 ft | 5 kts | 223° |
| 2026-04-24 19:19 | 51.27623 | -0.78290 | 228 ft | 0 kts | 220° |
| 2026-04-24 19:21 | 51.27581 | -0.78349 | 228 ft | 15 kts | 221° |
| 2026-04-24 19:21 | 51.27507 | -0.78451 | 228 ft | 13 kts | 220° |
| 2026-04-24 19:22 | 51.27462 | -0.78513 | 228 ft | 11 kts | 221° |
| 2026-04-24 19:22 | 51.27374 | -0.78637 | 229 ft | 12 kts | 221° |
| 2026-04-24 19:22 | 51.27313 | -0.78719 | 229 ft | 9 kts | 205° |
| 2026-04-24 19:22 | 51.27247 | -0.78681 | 229 ft | 12 kts | 140° |
| 2026-04-24 19:23 | 51.27245 | -0.78633 | 229 ft | 0 kts | 61° |
| 2026-04-24 19:23 | 51.27264 | -0.78578 | 229 ft | 24 kts | 62° |
| 2026-04-24 19:23 | 51.27421 | -0.78108 | 225 ft | 71 kts | 62° |
| 2026-04-24 19:24 | 51.27729 | -0.77199 | 318 ft | 111 kts | 60° |
| 2026-04-24 19:24 | 51.28177 | -0.75908 | 527 ft | 152 kts | 64° |
| 2026-04-24 19:24 | 51.28707 | -0.74295 | 797 ft | 169 kts | 62° |
| 2026-04-24 19:24 | 51.29251 | -0.72660 | 1363 ft | 165 kts | 64° |
| 2026-04-24 19:25 | 51.29793 | -0.71015 | 1762 ft | 169 kts | 64° |
| 2026-04-24 19:25 | 51.30309 | -0.69364 | 2256 ft | 167 kts | 71° |
| 2026-04-24 19:25 | 51.30343 | -0.67529 | 2742 ft | 169 kts | 106° |
| 2026-04-24 19:25 | 51.29673 | -0.65869 | 2998 ft | 193 kts | 135° |
| 2026-04-24 19:26 | 51.28497 | -0.64741 | 3002 ft | 206 kts | 153° |
| 2026-04-24 19:26 | 51.27144 | -0.63831 | 3004 ft | 212 kts | 158° |
| 2026-04-24 19:26 | 51.26181 | -0.63539 | 3002 ft | 208 kts | 176° |
| 2026-04-24 19:27 | 51.25403 | -0.63684 | 2995 ft | 205 kts | 192° |
| 2026-04-24 19:27 | 51.24156 | -0.64704 | 2989 ft | 207 kts | 217° |
| 2026-04-24 19:27 | 51.23275 | -0.66565 | 2990 ft | 215 kts | 241° |
| 2026-04-24 19:27 | 51.22596 | -0.68731 | 2996 ft | 221 kts | 242° |
| 2026-04-24 19:28 | 51.21886 | -0.70946 | 3001 ft | 227 kts | 241° |
| 2026-04-24 19:28 | 51.21151 | -0.73164 | 2998 ft | 228 kts | 240° |
| 2026-04-24 19:28 | 51.20281 | -0.75260 | 3027 ft | 225 kts | 233° |
| 2026-04-24 19:28 | 51.19381 | -0.77310 | 3027 ft | 225 kts | 234° |
| 2026-04-24 19:29 | 51.17616 | -0.81377 | 3023 ft | 221 kts | 233° |
| 2026-04-24 19:29 | 51.16750 | -0.83360 | 3002 ft | 220 kts | 233° |
| 2026-04-24 19:29 | 51.15876 | -0.85363 | 2998 ft | 219 kts | 233° |
| 2026-04-24 19:30 | 51.15003 | -0.87359 | 2994 ft | 220 kts | 233° |
| 2026-04-24 19:30 | 51.14118 | -0.89385 | 2998 ft | 223 kts | 233° |
| 2026-04-24 19:30 | 51.13227 | -0.91420 | 3000 ft | 225 kts | 233° |
| 2026-04-24 19:30 | 51.12397 | -0.93540 | 2997 ft | 227 kts | 243° |
| 2026-04-24 19:31 | 51.11757 | -0.95800 | 3103 ft | 223 kts | 245° |
| 2026-04-24 19:31 | 51.11135 | -0.98009 | 3404 ft | 213 kts | 244° |
| 2026-04-24 19:31 | 51.10274 | -0.99825 | 3688 ft | 201 kts | 215° |
| 2026-04-24 19:31 | 51.09006 | -1.00386 | 3964 ft | 186 kts | 170° |
| 2026-04-24 19:32 | 51.07838 | -0.99659 | 4245 ft | 177 kts | 158° |
| 2026-04-24 19:32 | 51.06649 | -0.99278 | 4558 ft | 172 kts | 172° |
| 2026-04-24 19:32 | 51.05469 | -0.99164 | 4795 ft | 174 kts | 175° |
| 2026-04-24 19:32 | 51.04151 | -0.99029 | 4905 ft | 206 kts | 173° |
| 2026-04-24 19:33 | 51.02654 | -0.98772 | 5243 ft | 216 kts | 173° |
| 2026-04-24 19:33 | 51.01200 | -0.99207 | 5906 ft | 216 kts | 207° |
| 2026-04-24 19:33 | 51.00144 | -1.00879 | 6529 ft | 219 kts | 241° |
| 2026-04-24 19:33 | 50.99702 | -1.03198 | 7130 ft | 220 kts | 258° |
| 2026-04-24 19:34 | 50.99439 | -1.05566 | 7723 ft | 221 kts | 260° |
| 2026-04-24 19:34 | 50.99210 | -1.07993 | 8285 ft | 223 kts | 261° |
| 2026-04-24 19:34 | 50.98897 | -1.10422 | 8846 ft | 225 kts | 256° |
| 2026-04-24 19:34 | 50.98529 | -1.12845 | 9414 ft | 226 kts | 258° |
| 2026-04-24 19:35 | 50.98206 | -1.15301 | 9988 ft | 227 kts | 258° |
| 2026-04-24 19:35 | 50.97869 | -1.17761 | 10528 ft | 228 kts | 257° |
| 2026-04-24 19:35 | 50.97524 | -1.20190 | 11055 ft | 228 kts | 257° |
| 2026-04-24 19:35 | 50.97182 | -1.22656 | 11592 ft | 229 kts | 257° |
| 2026-04-24 19:36 | 50.96840 | -1.25126 | 12147 ft | 229 kts | 257° |
| 2026-04-24 19:36 | 50.96493 | -1.27593 | 12707 ft | 229 kts | 256° |
| 2026-04-24 19:36 | 50.96148 | -1.30061 | 13283 ft | 229 kts | 256° |
| 2026-04-24 19:36 | 50.95803 | -1.32521 | 13870 ft | 229 kts | 256° |
| 2026-04-24 19:37 | 50.95113 | -1.34707 | 14399 ft | 226 kts | 226° |
| 2026-04-24 19:37 | 50.93812 | -1.36078 | 14924 ft | 225 kts | 207° |
| 2026-04-24 19:37 | 50.92383 | -1.37113 | 15461 ft | 226 kts | 205° |
| 2026-04-24 19:37 | 50.90944 | -1.38123 | 16004 ft | 226 kts | 208° |
| 2026-04-24 19:38 | 50.89555 | -1.39289 | 16563 ft | 226 kts | 210° |
| 2026-04-24 19:38 | 50.88153 | -1.40415 | 17127 ft | 227 kts | 208° |
| 2026-04-24 19:38 | 50.86730 | -1.41523 | 17704 ft | 229 kts | 209° |
| 2026-04-24 19:38 | 50.85301 | -1.42677 | 18294 ft | 230 kts | 210° |
| 2026-04-24 19:39 | 50.83883 | -1.43812 | 18831 ft | 232 kts | 210° |
| 2026-04-24 19:39 | 50.82435 | -1.44956 | 19345 ft | 233 kts | 210° |
| 2026-04-24 19:39 | 50.80981 | -1.46117 | 19797 ft | 238 kts | 210° |
| 2026-04-24 19:39 | 50.79464 | -1.47330 | 20020 ft | 250 kts | 210° |
| 2026-04-24 19:40 | 50.77863 | -1.48597 | 20130 ft | 264 kts | 210° |
| 2026-04-24 19:40 | 50.76206 | -1.49911 | 20184 ft | 275 kts | 210° |
| 2026-04-24 19:40 | 50.74470 | -1.51291 | 20211 ft | 283 kts | 210° |
| 2026-04-24 19:40 | 50.72679 | -1.52708 | 20222 ft | 290 kts | 210° |
| 2026-04-24 19:41 | 50.70859 | -1.54149 | 20231 ft | 294 kts | 209° |
| 2026-04-24 19:41 | 50.69639 | -1.55115 | 20231 ft | 296 kts | 209° |
| 2026-04-24 19:41 | 50.67180 | -1.57059 | 20234 ft | 299 kts | 209° |
| 2026-04-24 19:41 | 50.65304 | -1.58541 | 20231 ft | 301 kts | 209° |
| 2026-04-24 19:42 | 50.64055 | -1.59526 | 20233 ft | 302 kts | 209° |
| 2026-04-24 19:42 | 50.62169 | -1.61014 | 20234 ft | 303 kts | 209° |
| 2026-04-24 19:42 | 50.59666 | -1.62986 | 20233 ft | 304 kts | 209° |
| 2026-04-24 19:42 | 50.58387 | -1.63993 | 20232 ft | 304 kts | 209° |
| 2026-04-24 19:43 | 50.56503 | -1.65475 | 20228 ft | 304 kts | 209° |
| 2026-04-24 19:43 | 50.54613 | -1.66959 | 20229 ft | 304 kts | 209° |
| 2026-04-24 19:43 | 50.52735 | -1.68435 | 20230 ft | 304 kts | 209° |
| 2026-04-24 19:43 | 50.50832 | -1.69927 | 20228 ft | 304 kts | 208° |
| 2026-04-24 19:44 | 50.48938 | -1.71411 | 20223 ft | 304 kts | 209° |
| 2026-04-24 19:44 | 50.47032 | -1.72904 | 20224 ft | 305 kts | 208° |
| 2026-04-24 19:44 | 50.45157 | -1.74370 | 20221 ft | 305 kts | 208° |
| 2026-04-24 19:44 | 50.43254 | -1.75858 | 20219 ft | 305 kts | 208° |
| 2026-04-24 19:45 | 50.41350 | -1.77344 | 20221 ft | 305 kts | 208° |
| 2026-04-24 19:45 | 50.39472 | -1.78810 | 20219 ft | 304 kts | 208° |
| 2026-04-24 19:45 | 50.37597 | -1.80271 | 20217 ft | 296 kts | 208° |
| 2026-04-24 19:45 | 50.35775 | -1.81690 | 20219 ft | 286 kts | 208° |
| 2026-04-24 19:46 | 50.34019 | -1.83056 | 20217 ft | 278 kts | 209° |
| 2026-04-24 19:46 | 50.32300 | -1.84394 | 20216 ft | 273 kts | 208° |
| 2026-04-24 19:46 | 50.30608 | -1.85708 | 20212 ft | 270 kts | 209° |
| 2026-04-24 19:46 | 50.28935 | -1.87007 | 20216 ft | 267 kts | 208° |
| 2026-04-24 19:47 | 50.27271 | -1.88298 | 20215 ft | 265 kts | 209° |
| 2026-04-24 19:47 | 50.25636 | -1.89565 | 20214 ft | 264 kts | 209° |
| 2026-04-24 19:47 | 50.23987 | -1.90842 | 20213 ft | 265 kts | 208° |
| 2026-04-24 19:47 | 50.22326 | -1.92127 | 20214 ft | 267 kts | 208° |
| 2026-04-24 19:48 | 50.20660 | -1.93415 | 20214 ft | 268 kts | 208° |
| 2026-04-24 19:48 | 50.18983 | -1.94711 | 20213 ft | 269 kts | 208° |
| 2026-04-24 19:48 | 50.15639 | -1.97292 | 20207 ft | 270 kts | 208° |
| 2026-04-24 19:49 | 50.12266 | -1.99890 | 20207 ft | 270 kts | 208° |
| 2026-04-24 19:49 | 50.08903 | -2.02477 | 20207 ft | 269 kts | 208° |
| 2026-04-24 19:50 | 50.03881 | -2.06333 | 20204 ft | 269 kts | 208° |
| 2026-04-24 19:50 | 50.02199 | -2.07623 | 20203 ft | 269 kts | 208° |
| 2026-04-24 19:51 | 49.98829 | -2.10186 | 20086 ft | 273 kts | 205° |
| 2026-04-24 19:51 | 49.97043 | -2.11152 | 19883 ft | 276 kts | 195° |
| 2026-04-24 19:52 | 49.93298 | -2.12320 | 19316 ft | 272 kts | 196° |
| 2026-04-24 19:52 | 49.91459 | -2.12993 | 18982 ft | 270 kts | 194° |
| 2026-04-24 19:52 | 49.89626 | -2.13588 | 18617 ft | 267 kts | 194° |
| 2026-04-24 19:52 | 49.87838 | -2.14208 | 18190 ft | 265 kts | 194° |
| 2026-04-24 19:53 | 49.86048 | -2.14828 | 17743 ft | 262 kts | 194° |
| 2026-04-24 19:53 | 49.84260 | -2.15427 | 17307 ft | 260 kts | 194° |
| 2026-04-24 19:53 | 49.80768 | -2.16623 | 16463 ft | 255 kts | 193° |
| 2026-04-24 19:54 | 49.79039 | -2.17208 | 16006 ft | 253 kts | 193° |
| 2026-04-24 19:54 | 49.77322 | -2.17792 | 15571 ft | 251 kts | 193° |
| 2026-04-24 19:54 | 49.75616 | -2.18374 | 15136 ft | 250 kts | 193° |
| 2026-04-24 19:54 | 49.73923 | -2.18947 | 14732 ft | 248 kts | 192° |
| 2026-04-24 19:55 | 49.72809 | -2.19324 | 14450 ft | 247 kts | 192° |
| 2026-04-24 19:55 | 49.70595 | -2.20078 | 13866 ft | 244 kts | 193° |
| 2026-04-24 19:55 | 49.68965 | -2.20832 | 13379 ft | 244 kts | 197° |
| 2026-04-24 19:55 | 49.67343 | -2.21583 | 12914 ft | 242 kts | 195° |
| 2026-04-24 19:56 | 49.65720 | -2.22272 | 12449 ft | 241 kts | 195° |
| 2026-04-24 19:56 | 49.64130 | -2.22995 | 12004 ft | 241 kts | 196° |
| 2026-04-24 19:56 | 49.62518 | -2.23720 | 11588 ft | 241 kts | 195° |
| 2026-04-24 19:56 | 49.60903 | -2.24429 | 11254 ft | 241 kts | 195° |
| 2026-04-24 19:57 | 49.59293 | -2.25149 | 10936 ft | 241 kts | 196° |
| 2026-04-24 19:57 | 49.57685 | -2.25869 | 10624 ft | 240 kts | 195° |
| 2026-04-24 19:57 | 49.56077 | -2.26579 | 10251 ft | 239 kts | 195° |
| 2026-04-24 19:57 | 49.54476 | -2.27291 | 9822 ft | 239 kts | 195° |
| 2026-04-24 19:58 | 49.52875 | -2.28005 | 9395 ft | 238 kts | 195° |
| 2026-04-24 19:58 | 49.51289 | -2.28707 | 8977 ft | 237 kts | 195° |
| 2026-04-24 19:58 | 49.49725 | -2.29399 | 8570 ft | 236 kts | 195° |
| 2026-04-24 19:58 | 49.48147 | -2.30100 | 8160 ft | 235 kts | 195° |
| 2026-04-24 19:59 | 49.46578 | -2.30794 | 7760 ft | 234 kts | 195° |
| 2026-04-24 19:59 | 49.45021 | -2.31484 | 7364 ft | 233 kts | 195° |
| 2026-04-24 19:59 | 49.43467 | -2.32170 | 6973 ft | 232 kts | 195° |
| 2026-04-24 19:59 | 49.41918 | -2.32856 | 6565 ft | 231 kts | 195° |
| 2026-04-24 20:00 | 49.40373 | -2.33536 | 6165 ft | 229 kts | 195° |
| 2026-04-24 20:00 | 49.38844 | -2.34215 | 5781 ft | 227 kts | 197° |
| 2026-04-24 20:00 | 49.37433 | -2.35197 | 5399 ft | 225 kts | 207° |
| 2026-04-24 20:00 | 49.36065 | -2.36346 | 5030 ft | 222 kts | 209° |
| 2026-04-24 20:01 | 49.34726 | -2.37518 | 4652 ft | 220 kts | 210° |
| 2026-04-24 20:01 | 49.33403 | -2.38705 | 4321 ft | 219 kts | 210° |
| 2026-04-24 20:01 | 49.32093 | -2.39906 | 4142 ft | 219 kts | 210° |
| 2026-04-24 20:01 | 49.30801 | -2.41106 | 4058 ft | 215 kts | 210° |
| 2026-04-24 20:02 | 49.29961 | -2.41892 | 4038 ft | 212 kts | 210° |
| 2026-04-24 20:02 | 49.28320 | -2.43434 | 3948 ft | 208 kts | 210° |
| 2026-04-24 20:02 | 49.27044 | -2.44636 | 3745 ft | 220 kts | 210° |
| 2026-04-24 20:02 | 49.25733 | -2.45879 | 3496 ft | 227 kts | 210° |
| 2026-04-24 20:03 | 49.24371 | -2.47182 | 3232 ft | 231 kts | 210° |
| 2026-04-24 20:03 | 49.23025 | -2.48490 | 3109 ft | 222 kts | 211° |
| 2026-04-24 20:03 | 49.21772 | -2.49726 | 3049 ft | 205 kts | 210° |
| 2026-04-24 20:03 | 49.20619 | -2.50872 | 3022 ft | 189 kts | 210° |
| 2026-04-24 20:04 | 49.19533 | -2.51946 | 3009 ft | 187 kts | 210° |
| 2026-04-24 20:04 | 49.18433 | -2.53006 | 3000 ft | 184 kts | 204° |
| 2026-04-24 20:04 | 49.17224 | -2.53212 | 3000 ft | 177 kts | 164° |
| 2026-04-24 20:04 | 49.16254 | -2.52148 | 2997 ft | 175 kts | 124° |
| 2026-04-24 20:05 | 49.16013 | -2.50350 | 2995 ft | 178 kts | 84° |
| 2026-04-24 20:05 | 49.16554 | -2.48645 | 2996 ft | 180 kts | 63° |
| 2026-04-24 20:05 | 49.17094 | -2.46920 | 2994 ft | 180 kts | 69° |
| 2026-04-24 20:05 | 49.17720 | -2.45284 | 3005 ft | 181 kts | 58° |
| 2026-04-24 20:06 | 49.18377 | -2.43649 | 3002 ft | 178 kts | 72° |
| 2026-04-24 20:06 | 49.18758 | -2.41844 | 2998 ft | 178 kts | 77° |
| 2026-04-24 20:06 | 49.19087 | -2.39990 | 2786 ft | 189 kts | 79° |
| 2026-04-24 20:06 | 49.19316 | -2.37958 | 2521 ft | 198 kts | 86° |
| 2026-04-24 20:07 | 49.19398 | -2.36527 | 2343 ft | 203 kts | 88° |
| 2026-04-24 20:07 | 49.19613 | -2.33631 | 1965 ft | 211 kts | 83° |
| 2026-04-24 20:07 | 49.19818 | -2.31450 | 1707 ft | 200 kts | 83° |
| 2026-04-24 20:07 | 49.19979 | -2.29500 | 1428 ft | 162 kts | 84° |
| 2026-04-24 20:08 | 49.20095 | -2.27975 | 1235 ft | 131 kts | 84° |
| 2026-04-24 20:08 | 49.20205 | -2.26671 | 1082 ft | 116 kts | 84° |
| 2026-04-24 20:08 | 49.20306 | -2.25476 | 945 ft | 114 kts | 83° |
| 2026-04-24 20:08 | 49.20400 | -2.24289 | 799 ft | 114 kts | 82° |
| 2026-04-24 20:09 | 49.20496 | -2.23080 | 629 ft | 111 kts | 82° |
| 2026-04-24 20:09 | 49.20589 | -2.21963 | 485 ft | 105 kts | 79° |
| 2026-04-24 20:09 | 49.20684 | -2.20882 | 353 ft | 97 kts | 79° |
| 2026-04-24 20:09 | 49.20766 | -2.19925 | 279 ft | 80 kts | 81° |
| 2026-04-24 20:10 | 49.20819 | -2.19307 | 278 ft | 33 kts | 85° |
| 2026-04-24 20:10 | 49.20798 | -2.19054 | 277 ft | 16 kts | 105° |
| 2026-04-24 20:10 | 49.20775 | -2.18954 | 277 ft | 10 kts | 112° |
| 2026-04-24 20:10 | 49.20734 | -2.18845 | 277 ft | 5 kts | 163° |
| 2026-04-24 20:11 | 49.20703 | -2.18875 | 277 ft | 6 kts | 261° |
| 2026-04-24 20:11 | 49.20696 | -2.18967 | 277 ft | 12 kts | 260° |
| 2026-04-24 20:11 | 49.20684 | -2.19098 | 276 ft | 13 kts | 263° |
| 2026-04-24 20:11 | 49.20680 | -2.19206 | 276 ft | 13 kts | 279° |
| 2026-04-24 20:12 | 49.20702 | -2.19328 | 276 ft | 10 kts | 282° |
| 2026-04-24 20:12 | 49.20709 | -2.19442 | 276 ft | 11 kts | 260° |
| 2026-04-24 20:12 | 49.20696 | -2.19552 | 276 ft | 10 kts | 260° |
| 2026-04-24 20:12 | 49.20670 | -2.19641 | 276 ft | 10 kts | 223° |
| 2026-04-24 20:13 | 49.20621 | -2.19692 | 276 ft | 8 kts | 232° |
| 2026-04-24 20:13 | 49.20611 | -2.19790 | 276 ft | 10 kts | 264° |
| 2026-04-24 20:13 | 49.20600 | -2.19905 | 276 ft | 10 kts | 248° |
| 2026-04-24 20:13 | 49.20546 | -2.19931 | 276 ft | 9 kts | 174° |
| 2026-04-24 20:14 | 49.20483 | -2.19921 | 276 ft | 9 kts | 174° |
| 2026-04-24 20:14 | 49.20434 | -2.19884 | 276 ft | 7 kts | 107° |
| 2026-04-24 20:14 | 49.20438 | -2.19790 | 276 ft | 9 kts | 84° |
| 2026-04-24 20:14 | 49.20444 | -2.19682 | 276 ft | 10 kts | 91° |
| 2026-04-24 20:15 | 49.20427 | -2.19572 | 276 ft | 12 kts | 104° |
| 2026-04-24 20:15 | 49.20408 | -2.19458 | 276 ft | 10 kts | 104° |
| 2026-04-24 20:15 | 49.20401 | -2.19355 | 276 ft | 11 kts | 82° |
| 2026-04-24 20:15 | 49.20411 | -2.19248 | 276 ft | 7 kts | 83° |
| 2026-04-24 20:16 | 49.20395 | -2.19222 | 276 ft | 4 kts | 174° |
| 2026-04-24 20:16 | 49.20362 | -2.19211 | 276 ft | 5 kts | 146° |
| 2026-04-24 20:16 | 49.20348 | -2.19181 | 276 ft | 2 kts | 104° |
| 2026-04-24 20:16 | 49.20355 | -2.19168 | 276 ft | 2 kts | 11° |
| 2026-04-24 20:17 | 49.20364 | -2.19179 | 276 ft | 0 kts | 282° |